Flight Track Log - Related Links

Times and Time Zones

All times are in EDT time to prevent confusion due to time zone crossing. See the BER6298 flight status page for this flight to view local times or setup timezone preferences in your user account.

Time Position Orientation Groundspeed Altitude Reporting Facility
EDT Latitude Longitude Course Direction KTS MPH feet Rate Location/Type
Wed 02:47:00 AM 50.0549 11.2511 349° North  Level Estimated
Wed 02:48:00 AM 50.1443 11.2219 348° North  Level Estimated
Wed 02:49:00 AM 50.2338 11.1925 348° North  Level Estimated
Wed 02:50:00 AM 50.3232 11.1631 348° North  Level Estimated
Wed 02:51:00 AM 50.4127 11.1336 348° North  Level Estimated
Wed 02:52:00 AM 50.5021 11.1039 348° North  Level Estimated
Wed 02:53:00 AM 50.5915 11.0742 348° North  Level Estimated
Wed 02:54:00 AM 50.6810 11.0443 348° North  Level Estimated
Wed 02:55:00 AM 50.7704 11.0143 348° North  Level Estimated
Wed 02:56:00 AM 50.8598 10.9842 348° North  Level Estimated
Wed 02:57:00 AM 50.9492 10.9540 348° North  Level Estimated
Wed 02:58:00 AM 51.0386 10.9237 348° North  Level Estimated
Wed 02:59:00 AM 51.1279 10.8932 348° North  Level Estimated
Wed 03:00:00 AM 51.2173 10.8627 348° North  Level Estimated
Wed 03:01:00 AM 51.3067 10.8320 348° North  Level Estimated
Wed 03:02:00 AM 51.3960 10.8012 348° North  Level Estimated
Wed 03:03:00 AM 51.4854 10.7702 348° North  Level Estimated
Wed 03:04:00 AM 51.5747 10.7392 348° North  Level Estimated
Wed 03:05:00 AM 51.6640 10.7080 348° North  Level Estimated
Wed 03:06:00 AM 51.7533 10.6767 348° North  Level Estimated
Wed 03:07:00 AM 51.8427 10.6453 348° North  Level Estimated
Wed 03:08:00 AM 51.9320 10.6138 348° North  Level Estimated
Wed 03:09:00 AM 52.0213 10.5821 348° North  Level Estimated
Wed 03:10:00 AM 52.1105 10.5503 348° North  Level Estimated
Wed 03:11:00 AM 52.1998 10.5184 348° North  Level Estimated
Wed 03:12:00 AM 52.2891 10.4863 348° North  Level Estimated
Wed 03:13:00 AM 52.3784 10.4542 348° North  Level Estimated
Wed 03:14:00 AM 52.4676 10.4218 348° North  Level Estimated
Wed 03:15:00 AM 52.5569 10.3894 348° North  Level Estimated
Wed 03:16:00 AM 52.6461 10.3568 348° North  Level Estimated
Wed 03:17:00 AM 52.7353 10.3241 347° North  Level Estimated
Wed 03:18:00 AM 52.8245 10.2913 347° North  Level Estimated
Wed 03:19:00 AM 52.9137 10.2583 347° North  Level Estimated
Wed 03:20:00 AM 53.0029 10.2252 347° North  Level Estimated
Wed 03:21:00 AM 53.0921 10.1919 347° North  Level Estimated
Wed 03:22:00 AM 53.1813 10.1586 347° North  Level Estimated
Wed 03:23:00 AM 53.2705 10.1250 347° North  Level Estimated
Wed 03:24:00 AM 53.3596 10.0913 347° North  Level Estimated
Wed 03:25:00 AM 53.4488 10.0575 347° North  Level Estimated
Wed 03:26:00 AM 53.5379 10.0236 347° North  Level Estimated
Wed 03:27:00 AM 53.6271 9.9895 347° North  Level Estimated
Wed 03:28:00 AM 53.6304 9.9882 347° North  Level Estimated
Wed 03:29:00 AM 53.6304 9.9882 230° Southwest  Level Estimated
Wed 03:30:00 AM 53.6304 9.9882 230° Southwest  Level Estimated
Wed 03:31:00 AM 53.6304 9.9882 230° Southwest  Level Estimated
Wed 03:32:00 AM 53.6304 9.9882 230° Southwest  Level Estimated
Wed 03:33:00 AM 53.6304 9.9882 230° Southwest  Level Estimated
Wed 03:34:00 AM 53.6304 9.9882 230° Southwest  Level Estimated
Wed 03:35:00 AM 53.6304 9.9882 230° Southwest  Level Estimated
Wed 03:36:00 AM 53.6304 9.9882 230° Southwest  Level Estimated
Wed 03:37:00 AM 53.6304 9.9882 230° Southwest  Level Estimated
Wed 03:38:00 AM 53.6304 9.9882 230° Southwest  Level Estimated
Wed 03:39:00 AM 53.6304 9.9882 230° Southwest  Level Estimated
Wed 03:40:00 AM 53.6304 9.9882 230° Southwest  Level Estimated
Wed 03:41:00 AM 53.6304 9.9882 230° Southwest  Level Estimated
Wed 03:42:00 AM 53.6304 9.9882 230° Southwest  Level Estimated
Wed 03:43:00 AM 53.6304 9.9882 230° Southwest  Level Estimated

Login

Don't have an account? Register now (free) for customized features, flight alerts, and more!